Time;durP1;ratioP1;P1;durP2;ratioP2;P2;SDS_P1;SDS_P2;PMS_P1;PMS_P2;Temp;Humidity;BMP_temperature;BMP_pressure;BME280_temperature;BME280_humidity;BME280_pressure;Samples;Min_cycle;Max_cycle;Signal;HPM_P1;HPM_P2
2023/06/11 00:00:27;;;;;;;39.92;17.05;;;;;;;15.22;100.00;92362.16;4933757;29;20043;-77
2023/06/11 00:02:56;;;;;;;43.78;18.02;;;;;;;15.18;100.00;92362.03;4933573;29;20036;-78
2023/06/11 00:05:24;;;;;;;34.67;16.58;;;;;;;15.16;100.00;92361.56;4934328;29;20044;-76
2023/06/11 00:07:51;;;;;;;35.67;17.48;;;;;;;15.16;100.00;92371.34;4933217;29;20127;-78
2023/06/11 00:10:16;;;;;;;35.00;15.35;;;;;;;15.17;100.00;92376.28;4921677;29;20055;-77
2023/06/11 00:12:43;;;;;;;30.90;15.02;;;;;;;15.17;100.00;92376.28;4953883;29;20138;-77
2023/06/11 00:15:09;;;;;;;36.47;15.25;;;;;;;15.17;100.00;92371.00;4936422;29;20039;-78
2023/06/11 00:17:35;;;;;;;34.67;15.75;;;;;;;15.18;100.00;92377.06;4953852;29;20110;-77
2023/06/11 00:20:09;;;;;;;36.95;15.68;;;;;;;15.22;100.00;92377.19;4936462;29;20145;-77
2023/06/11 00:22:35;;;;;;;33.15;16.00;;;;;;;15.24;100.00;92370.50;4952033;29;20050;-77
2023/06/11 00:25:01;;;;;;;32.78;16.15;;;;;;;15.25;100.00;92361.53;4952475;28;20062;-77
2023/06/11 00:27:26;;;;;;;36.78;15.63;;;;;;;15.28;100.00;92375.94;4947030;29;20039;-78
2023/06/11 00:29:53;;;;;;;38.42;17.77;;;;;;;15.29;100.00;92366.91;4952221;28;20051;-77
2023/06/11 00:32:19;;;;;;;38.80;17.83;;;;;;;15.29;100.00;92366.91;4938668;29;20027;-77
2023/06/11 00:34:45;;;;;;;37.22;17.55;;;;;;;15.29;100.00;92356.38;4956565;28;20031;-77
2023/06/11 00:37:11;;;;;;;42.78;18.10;;;;;;;15.28;100.00;92366.16;4956855;29;20035;-77
2023/06/11 00:39:37;;;;;;;41.13;16.33;;;;;;;15.26;100.00;92351.75;4956828;29;20062;-77
2023/06/11 00:42:03;;;;;;;40.15;16.70;;;;;;;15.23;100.00;92357.66;4956814;29;20051;-78
2023/06/11 00:44:29;;;;;;;37.78;16.67;;;;;;;15.21;100.00;92360.59;4955211;28;20039;-77
2023/06/11 00:46:57;;;;;;;34.15;16.65;;;;;;;15.22;100.00;92356.91;4956303;29;20036;-76
2023/06/11 00:49:24;;;;;;;35.90;16.38;;;;;;;15.17;100.00;92357.81;4956521;29;20105;-77
2023/06/11 00:51:52;;;;;;;44.35;17.33;;;;;;;15.13;100.00;92353.50;4954422;29;20039;-77
2023/06/11 00:54:17;;;;;;;32.53;15.70;;;;;;;15.10;100.00;92359.41;4937812;29;20043;-78
2023/06/11 00:56:43;;;;;;;33.25;15.75;;;;;;;15.05;100.00;92357.72;4954542;29;20047;-77
2023/06/11 00:59:10;;;;;;;34.22;16.52;;;;;;;15.00;100.00;92355.28;4954817;29;20047;-77
2023/06/11 01:01:56;;;;;;;36.30;16.67;;;;;;;14.96;100.00;92347.22;4938544;29;20412;-77
2023/06/11 01:04:23;;;;;;;34.97;15.25;;;;;;;14.94;100.00;92346.75;4938298;29;20067;-77
2023/06/11 01:06:57;;;;;;;32.92;15.10;;;;;;;14.91;100.00;92355.31;4955432;29;20043;-77
2023/06/11 01:09:25;;;;;;;36.55;16.67;;;;;;;14.89;100.00;92346.16;4938069;29;20500;-77
2023/06/11 01:11:53;;;;;;;37.10;16.88;;;;;;;14.85;100.00;92355.78;4937212;29;20031;-77
2023/06/11 01:14:20;;;;;;;33.88;16.52;;;;;;;14.83;100.00;92348.19;4953899;28;20481;-77
2023/06/11 01:17:04;;;;;;;34.47;17.15;;;;;;;14.84;100.00;92354.22;4954965;29;20152;-78
2023/06/11 01:19:33;;;;;;;37.97;17.38;;;;;;;14.84;100.00;92357.66;4938128;29;20035;-77
2023/06/11 01:22:09;;;;;;;42.28;17.38;;;;;;;14.84;100.00;92359.50;4953977;29;20045;-76
2023/06/11 01:25:22;;;;;;;39.03;16.45;;;;;;;14.87;100.00;92356.25;4938061;29;20039;-78
2023/06/11 01:28:03;;;;;;;36.53;16.15;;;;;;;14.84;100.00;92355.03;4953959;29;20559;-77
2023/06/11 01:30:30;;;;;;;40.65;17.70;;;;;;;14.86;100.00;92354.69;4938773;29;20040;-77
2023/06/11 01:32:56;;;;;;;37.42;16.70;;;;;;;14.85;100.00;92355.78;4939544;29;20043;-77
2023/06/11 01:35:27;;;;;;;36.50;16.80;;;;;;;14.84;100.00;92351.59;4939191;29;20392;-77
2023/06/11 01:37:58;;;;;;;35.22;16.92;;;;;;;14.85;100.00;92350.50;4938344;29;20043;-77
2023/06/11 01:40:32;;;;;;;44.72;17.35;;;;;;;14.86;100.00;92346.78;4953850;28;20039;-78
2023/06/11 01:42:59;;;;;;;39.85;17.95;;;;;;;14.87;100.00;92356.25;4922001;29;20055;-77
2023/06/11 01:45:26;;;;;;;40.80;17.85;;;;;;;14.88;100.00;92347.25;4937547;29;20031;-77
2023/06/11 01:47:52;;;;;;;41.58;18.20;;;;;;;14.90;100.00;92352.97;4954986;29;20054;-77
2023/06/11 01:50:19;;;;;;;43.60;17.77;;;;;;;14.90;100.00;92347.69;4946374;29;20374;-77
2023/06/11 01:52:46;;;;;;;39.28;17.98;;;;;;;14.91;100.00;92347.41;4945035;29;20163;-78
2023/06/11 01:55:12;;;;;;;46.13;17.80;;;;;;;14.94;100.00;92348.63;4937221;29;20231;-77
2023/06/11 01:57:38;;;;;;;42.03;17.67;;;;;;;14.96;100.00;92341.19;4937547;29;20114;-77
2023/06/11 02:00:05;;;;;;;40.65;18.23;;;;;;;14.97;100.00;92330.31;4937134;29;20031;-77
2023/06/11 02:02:42;;;;;;;42.85;18.20;;;;;;;14.99;100.00;92325.50;4954704;29;20119;-78
2023/06/11 02:05:09;;;;;;;39.58;16.83;;;;;;;15.02;100.00;92332.00;4937885;29;20039;-77
2023/06/11 02:07:36;;;;;;;36.60;18.40;;;;;;;15.04;100.00;92337.75;4938214;29;20050;-78
2023/06/11 02:10:02;;;;;;;45.42;18.25;;;;;;;15.05;100.00;92334.00;4932267;29;20082;-77
2023/06/11 02:12:29;;;;;;;34.72;17.13;;;;;;;15.09;100.00;92334.16;4953667;29;20023;-78
2023/06/11 02:14:54;;;;;;;37.17;17.45;;;;;;;15.08;100.00;92338.63;4953757;28;20054;-78
2023/06/11 02:17:20;;;;;;;36.67;18.50;;;;;;;15.07;100.00;92331.81;4937688;29;20043;-77
2023/06/11 02:19:47;;;;;;;37.45;17.80;;;;;;;15.09;100.00;92342.81;4954787;29;20035;-78
2023/06/11 02:22:12;;;;;;;38.50;16.90;;;;;;;15.07;100.00;92339.72;4953160;29;20118;-77
2023/06/11 02:24:38;;;;;;;43.25;16.95;;;;;;;15.06;100.00;92327.63;4937821;29;20039;-77
2023/06/11 02:27:05;;;;;;;36.03;17.67;;;;;;;15.04;100.00;92327.19;4933153;29;20504;-78
2023/06/11 02:29:32;;;;;;;43.47;18.10;;;;;;;15.03;100.00;92322.22;4933922;29;20519;-77
2023/06/11 02:31:57;;;;;;;38.38;17.70;;;;;;;15.05;100.00;92322.69;4933369;29;20036;-77
2023/06/11 02:34:23;;;;;;;39.03;17.65;;;;;;;15.02;100.00;92321.47;4917714;29;20127;-77
2023/06/11 02:36:48;;;;;;;40.03;16.60;;;;;;;14.99;100.00;92327.34;4938444;29;20039;-78
2023/06/11 02:39:14;;;;;;;36.92;17.40;;;;;;;14.97;100.00;92324.25;4955037;29;20038;-78
2023/06/11 02:41:40;;;;;;;39.50;17.85;;;;;;;14.94;100.00;92320.41;4953426;29;20043;-78
2023/06/11 02:44:06;;;;;;;48.17;19.17;;;;;;;14.93;100.00;92318.09;4937496;29;20039;-77
2023/06/11 02:46:31;;;;;;;36.53;17.55;;;;;;;14.98;100.00;92315.28;4937500;29;20507;-77
2023/06/11 02:48:57;;;;;;;39.17;17.50;;;;;;;14.95;100.00;92314.06;4937016;29;20051;-78
2023/06/11 02:51:22;;;;;;;34.83;16.98;;;;;;;14.88;100.00;92318.25;4954783;29;20044;-78
2023/06/11 02:53:48;;;;;;;40.65;17.42;;;;;;;14.80;100.00;92316.44;4952138;28;20068;-77
2023/06/11 02:56:14;;;;;;;41.72;18.05;;;;;;;14.73;100.00;92314.28;4953684;29;20356;-78
2023/06/11 02:58:40;;;;;;;40.08;17.30;;;;;;;14.69;100.00;92321.28;4952962;29;20568;-77
2023/06/11 03:01:05;;;;;;;43.95;17.27;;;;;;;14.65;100.00;92313.22;4905653;29;20027;-77
2023/06/11 03:03:31;;;;;;;36.15;17.13;;;;;;;14.61;100.00;92312.28;4937169;29;20047;-78
2023/06/11 03:05:58;;;;;;;36.80;16.33;;;;;;;14.57;100.00;92309.53;4937351;29;20047;-78
2023/06/11 03:08:24;;;;;;;39.35;16.85;;;;;;;14.53;100.00;92310.44;4919053;29;20047;-78
2023/06/11 03:10:49;;;;;;;41.50;17.02;;;;;;;14.50;100.00;92311.06;4950670;29;20030;-78
2023/06/11 03:13:15;;;;;;;37.40;17.08;;;;;;;14.46;100.00;92305.66;4937830;29;20043;-77
2023/06/11 03:15:43;;;;;;;37.70;17.80;;;;;;;14.43;100.00;92305.50;4937692;29;20031;-78
2023/06/11 03:18:09;;;;;;;43.60;18.00;;;;;;;14.41;100.00;92300.56;4921335;29;20400;-76
2023/06/11 03:20:36;;;;;;;38.50;17.52;;;;;;;14.38;100.00;92296.69;4953100;29;20027;-78
2023/06/11 03:23:02;;;;;;;38.30;17.55;;;;;;;14.36;100.00;92290.97;4954824;29;20278;-77
2023/06/11 03:25:28;;;;;;;44.17;17.92;;;;;;;14.35;100.00;92289.41;4952907;28;20109;-77
2023/06/11 03:27:54;;;;;;;39.00;18.17;;;;;;;14.33;100.00;92285.56;4922326;29;20066;-77
2023/06/11 03:30:19;;;;;;;39.92;17.77;;;;;;;14.35;100.00;92284.16;4954098;29;20027;-78
2023/06/11 03:32:45;;;;;;;47.17;18.52;;;;;;;14.35;100.00;92291.28;4952994;29;20065;-77
2023/06/11 03:35:12;;;;;;;44.10;18.25;;;;;;;14.32;100.00;92284.00;4932669;29;20078;-77
2023/06/11 03:37:38;;;;;;;37.25;18.27;;;;;;;14.29;100.00;92284.63;4933720;29;20063;-77
2023/06/11 03:40:05;;;;;;;40.88;18.42;;;;;;;14.27;100.00;92290.19;4933818;29;20028;-77
2023/06/11 03:42:31;;;;;;;38.70;17.67;;;;;;;14.26;100.00;92291.28;4934228;29;20064;-77
2023/06/11 03:44:57;;;;;;;47.13;19.10;;;;;;;14.26;100.00;92291.28;4942304;29;20035;-78
2023/06/11 03:47:24;;;;;;;37.92;17.42;;;;;;;14.27;100.00;92292.06;4937079;29;20489;-77
2023/06/11 03:49:51;;;;;;;37.38;18.17;;;;;;;14.27;100.00;92287.56;4953017;29;20066;-77
2023/06/11 03:52:17;;;;;;;42.90;18.10;;;;;;;14.29;100.00;92292.53;4948823;29;20075;-77
2023/06/11 03:54:43;;;;;;;42.67;19.02;;;;;;;14.28;100.00;92288.38;4932468;29;20087;-77
2023/06/11 03:57:10;;;;;;;36.75;17.30;;;;;;;14.26;100.00;92286.03;4953669;29;20043;-77
2023/06/11 03:59:35;;;;;;;36.20;17.38;;;;;;;14.28;100.00;92288.38;4953186;29;20031;-77
2023/06/11 04:02:01;;;;;;;46.72;18.40;;;;;;;14.29;100.00;92288.03;4931728;29;20445;-77
2023/06/11 04:04:27;;;;;;;37.58;17.00;;;;;;;14.29;100.00;92285.41;4949074;28;20095;-76
2023/06/11 04:06:53;;;;;;;34.03;16.40;;;;;;;14.28;100.00;92289.13;4938634;29;20043;-77
2023/06/11 04:09:19;;;;;;;35.90;17.48;;;;;;;14.28;100.00;92291.75;4921420;29;20039;-78
2023/06/11 04:11:45;;;;;;;32.70;15.60;;;;;;;14.29;100.00;92290.66;4920848;29;20397;-78
2023/06/11 04:14:12;;;;;;;34.22;16.25;;;;;;;14.40;100.00;92295.59;4921296;29;20478;-77
2023/06/11 04:16:37;;;;;;;35.05;16.38;;;;;;;14.34;100.00;92300.25;4905937;29;20072;-78
2023/06/11 04:19:04;;;;;;;35.22;15.73;;;;;;;14.33;100.00;92301.34;4931614;29;20464;-77
2023/06/11 04:21:29;;;;;;;37.05;16.52;;;;;;;14.33;100.00;92303.97;4951896;29;20062;-77
2023/06/11 04:23:55;;;;;;;34.47;16.35;;;;;;;14.35;100.00;92297.31;4956092;28;20043;-78
2023/06/11 04:26:23;;;;;;;32.65;15.85;;;;;;;14.38;100.00;92298.53;4940913;29;20053;-78
2023/06/11 04:28:50;;;;;;;31.15;14.68;;;;;;;14.44;100.00;92291.25;4940272;29;20070;-77
2023/06/11 04:31:17;;;;;;;35.10;14.50;;;;;;;14.47;100.00;92295.91;4940255;29;20496;-78
2023/06/11 04:33:45;;;;;;;30.55;14.70;;;;;;;14.50;100.00;92298.69;4939757;28;20047;-77
2023/06/11 04:36:12;;;;;;;37.30;16.13;;;;;;;14.57;100.00;92298.22;4940076;29;20397;-78
2023/06/11 04:38:44;;;;;;;44.67;19.75;;;;;;;14.64;100.00;92306.41;4940071;29;20117;-77
2023/06/11 04:41:11;;;;;;;32.42;14.93;;;;;;;14.67;100.00;92300.50;4940233;29;20143;-77
2023/06/11 04:43:40;;;;;;;32.78;15.60;;;;;;;14.68;100.00;92301.28;4956256;29;20050;-78
2023/06/11 04:46:06;;;;;;;26.75;13.43;;;;;;;14.72;100.00;92297.69;4921348;29;20034;-78
2023/06/11 04:48:32;;;;;;;29.25;14.23;;;;;;;14.75;100.00;92291.81;4924237;29;20094;-77
2023/06/11 04:51:02;;;;;;;27.63;13.82;;;;;;;14.80;100.00;92290.09;4940011;29;20035;-77
2023/06/11 04:53:37;;;;;;;33.67;15.35;;;;;;;14.83;100.00;92290.22;4939745;29;20046;-77
2023/06/11 04:56:04;;;;;;;31.92;14.38;;;;;;;14.90;100.00;92289.72;4955678;28;20042;-78
2023/06/11 04:58:32;;;;;;;33.97;14.52;;;;;;;14.97;100.00;92287.34;4940302;29;20066;-78
2023/06/11 05:00:58;;;;;;;34.00;14.85;;;;;;;15.05;100.00;92288.44;4935700;29;20027;-78
2023/06/11 05:03:26;;;;;;;45.67;17.00;;;;;;;15.15;100.00;92291.47;4914115;29;20043;-78
2023/06/11 05:05:53;;;;;;;37.13;16.30;;;;;;;15.27;100.00;92290.03;4923794;29;20130;-77
2023/06/11 05:08:24;;;;;;;38.53;17.23;;;;;;;15.38;100.00;92291.97;4939427;29;20528;-78
2023/06/11 05:10:52;;;;;;;44.15;18.65;;;;;;;15.48;100.00;92296.06;4939706;29;20047;-78
2023/06/11 05:13:25;;;;;;;40.58;18.73;;;;;;;15.59;100.00;92291.97;4956225;29;20292;-78
2023/06/11 05:15:56;;;;;;;36.60;17.20;;;;;;;15.67;100.00;92285.09;4939546;29;20043;-78
2023/06/11 05:18:25;;;;;;;45.10;21.02;;;;;;;15.79;100.00;92293.09;4938873;29;20050;-77
2023/06/11 05:20:51;;;;;;;44.55;20.58;;;;;;;15.88;100.00;92287.75;4951138;29;20046;-78
2023/06/11 05:23:21;;;;;;;55.97;20.85;;;;;;;15.99;100.00;92282.84;4939717;29;20043;-77
2023/06/11 05:25:47;;;;;;;86.40;18.90;;;;;;;16.30;100.00;92286.91;4939862;29;20035;-78
2023/06/11 05:28:15;;;;;;;49.65;22.27;;;;;;;16.21;100.00;92289.63;4940295;29;20548;-77
2023/06/11 05:30:45;;;;;;;58.25;22.90;;;;;;;16.13;100.00;92282.56;4955343;29;20035;-78
2023/06/11 05:33:16;;;;;;;45.95;21.58;;;;;;;16.16;100.00;92282.69;4939707;29;20416;-78
2023/06/11 05:35:44;;;;;;;47.60;22.05;;;;;;;16.14;100.00;92286.75;4954247;28;20051;-77
2023/06/11 05:38:10;;;;;;;44.95;20.92;;;;;;;16.27;100.00;92284.91;4936613;29;20030;-78
2023/06/11 05:40:38;;;;;;;43.42;18.33;;;;;;;16.41;100.00;92282.75;4904971;29;20035;-77
2023/06/11 05:43:07;;;;;;;41.50;18.05;;;;;;;16.54;100.00;92291.50;4948643;29;20034;-78
2023/06/11 05:45:35;;;;;;;48.72;18.90;;;;;;;17.14;100.00;92294.56;4939567;29;20047;-78
2023/06/11 05:48:03;;;;;;;42.78;18.65;;;;;;;17.69;100.00;92291.28;4939930;29;20127;-79
2023/06/11 05:50:31;;;;;;;35.80;18.70;;;;;;;18.02;100.00;92290.34;4939358;29;20134;-78
2023/06/11 05:52:57;;;;;;;38.75;18.40;;;;;;;18.58;100.00;92280.84;4940538;29;20039;-79
2023/06/11 05:55:23;;;;;;;39.30;16.67;;;;;;;19.22;100.00;92282.38;4941070;29;20051;-77
2023/06/11 05:57:48;;;;;;;25.40;14.25;;;;;;;19.88;100.00;92288.78;4957444;29;20028;-79
2023/06/11 06:00:15;;;;;;;23.83;13.23;;;;;;;20.35;100.00;92287.00;4941006;29;20121;-79
2023/06/11 06:02:41;;;;;;;24.67;13.25;;;;;;;20.75;100.00;92291.19;4958963;29;20066;-79
2023/06/11 06:05:12;;;;;;;30.90;16.65;;;;;;;20.74;100.00;92289.66;4941213;29;20062;-78
2023/06/11 06:07:37;;;;;;;30.55;16.67;;;;;;;20.00;100.00;92277.25;4941715;29;20043;-78
2023/06/11 06:10:03;;;;;;;218.23;18.27;;;;;;;19.04;100.00;92287.28;4936455;29;20067;-78
2023/06/11 06:12:30;;;;;;;337.65;22.77;;;;;;;18.92;100.00;92290.03;4938590;29;20118;-78
2023/06/11 06:14:56;;;;;;;111.28;18.77;;;;;;;18.17;100.00;92283.56;4938708;29;20118;-78
2023/06/11 06:17:22;;;;;;;70.35;18.70;;;;;;;17.99;100.00;92288.38;4924129;29;20043;-78
2023/06/11 06:19:48;;;;;;;35.08;17.27;;;;;;;17.77;100.00;92286.22;4939260;29;20137;-79
2023/06/11 06:22:16;;;;;;;32.33;18.58;;;;;;;17.42;100.00;92287.47;4955055;29;20049;-82
2023/06/11 06:24:42;;;;;;;113.03;20.73;;;;;;;17.21;100.00;92286.84;4939964;29;20523;-79
2023/06/11 06:27:07;;;;;;;454.45;26.35;;;;;;;17.10;100.00;92277.81;4947021;29;20042;-81
2023/06/11 06:29:38;;;;;;;51.80;21.05;;;;;;;17.37;100.00;92285.06;4957887;29;20031;-85
2023/06/11 06:32:06;;;;;;;192.25;23.65;;;;;;;17.20;100.00;92283.44;4937739;29;20054;-79
2023/06/11 06:34:32;;;;;;;34.85;19.38;;;;;;;17.43;100.00;92294.31;4939551;29;20130;-79
2023/06/11 06:37:00;;;;;;;35.40;19.88;;;;;;;18.06;100.00;92295.75;4924454;29;20129;-82
2023/06/11 06:39:27;;;;;;;32.22;17.50;;;;;;;18.87;100.00;92293.69;4952213;28;20564;-83
2023/06/11 06:41:53;;;;;;;33.30;18.08;;;;;;;19.24;100.00;92301.38;4937596;29;20178;-82
2023/06/11 06:44:22;;;;;;;28.92;16.58;;;;;;;19.52;100.00;92298.63;4947842;29;20575;-80
2023/06/11 06:46:48;;;;;;;35.22;16.55;;;;;;;19.81;100.00;92298.47;4938126;29;20047;-80
2023/06/11 06:49:15;;;;;;;27.15;15.88;;;;;;;19.92;100.00;92304.78;4955249;29;20047;-78
2023/06/11 06:51:40;;;;;;;26.65;14.57;;;;;;;19.30;100.00;92307.97;4924304;29;20046;-81
2023/06/11 06:54:06;;;;;;;25.70;14.65;;;;;;;19.16;100.00;92302.31;4934801;29;20069;-80
2023/06/11 06:56:33;;;;;;;29.67;14.60;;;;;;;18.73;100.00;92298.59;4941245;29;20031;-80
2023/06/11 06:59:01;;;;;;;32.15;14.65;;;;;;;19.03;100.00;92306.19;4958418;29;20043;-80
2023/06/11 07:01:27;;;;;;;25.45;14.73;;;;;;;18.94;100.00;92295.75;4926658;29;20049;-81
2023/06/11 07:03:53;;;;;;;28.50;15.38;;;;;;;19.04;100.00;92303.19;4921556;28;20132;-81
2023/06/11 07:06:19;;;;;;;23.65;14.32;;;;;;;19.28;100.00;92298.81;4956236;29;20039;-81
2023/06/11 07:08:44;;;;;;;27.90;13.43;;;;;;;19.31;100.00;92306.09;4939086;29;20094;-81
2023/06/11 07:11:10;;;;;;;26.10;12.18;;;;;;;19.59;100.00;92305.97;4937423;29;20089;-81
2023/06/11 07:13:40;;;;;;;18.80;11.30;;;;;;;19.72;100.00;92310.09;4935690;29;20090;-81
2023/06/11 07:16:07;;;;;;;22.83;12.32;;;;;;;19.86;100.00;92303.50;4937264;29;20035;-82
2023/06/11 07:18:37;;;;;;;25.42;12.82;;;;;;;19.76;100.00;92307.47;4939079;29;20058;-82
2023/06/11 07:21:02;;;;;;;24.35;13.23;;;;;;;19.53;100.00;92307.34;4956299;29;20509;-82
2023/06/11 07:23:28;;;;;;;21.35;12.00;;;;;;;19.51;100.00;92309.56;4932541;29;20047;-83
2023/06/11 07:25:55;;;;;;;24.65;13.00;;;;;;;19.61;100.00;92308.25;4922552;29;20051;-83
2023/06/11 07:28:23;;;;;;;25.77;13.65;;;;;;;19.54;100.00;92312.31;4922394;29;20495;-83
2023/06/11 07:30:49;;;;;;;20.85;12.70;;;;;;;19.26;100.00;92320.38;4938196;29;20046;-83
2023/06/11 07:33:17;;;;;;;23.33;13.75;;;;;;;19.27;100.00;92311.34;4938459;29;20043;-82
2023/06/11 07:35:43;;;;;;;21.55;12.32;;;;;;;19.39;100.00;92305.16;4938649;29;20043;-83
2023/06/11 07:38:08;;;;;;;20.77;12.15;;;;;;;19.53;100.00;92307.34;4922409;29;20454;-82
2023/06/11 07:40:37;;;;;;;24.70;12.32;;;;;;;19.63;100.00;92312.09;4920441;29;20039;-82
2023/06/11 07:43:02;;;;;;;21.38;12.43;;;;;;;19.64;100.00;92312.91;4920194;29;20498;-82
2023/06/11 07:45:30;;;;;;;25.73;12.05;;;;;;;19.71;100.00;92313.06;4938128;29;20039;-83
2023/06/11 07:47:55;;;;;;;19.17;11.45;;;;;;;20.01;100.00;92310.66;4936610;29;20063;-82
2023/06/11 07:50:21;;;;;;;22.00;11.32;;;;;;;19.99;100.00;92310.22;4937953;29;20090;-82
2023/06/11 07:52:47;;;;;;;20.42;10.77;;;;;;;20.07;100.00;92309.28;4921926;29;20044;-82
2023/06/11 07:55:21;;;;;;;22.80;11.88;;;;;;;19.87;100.00;92305.06;4937540;29;20052;-82
2023/06/11 07:57:47;;;;;;;19.33;11.18;;;;;;;19.86;100.00;92306.94;4938999;29;20047;-81
2023/06/11 08:00:15;;;;;;;21.27;11.32;;;;;;;19.80;100.00;92305.69;4904897;29;20135;-82
2023/06/11 08:02:41;;;;;;;18.15;10.55;;;;;;;20.07;100.00;92295.22;4938836;29;20118;-82
2023/06/11 08:05:10;;;;;;;18.50;11.02;;;;;;;20.16;100.00;92304.50;4921159;29;20070;-82
2023/06/11 08:07:35;;;;;;;20.23;11.35;;;;;;;20.30;100.00;92311.22;4939014;29;20520;-82
2023/06/11 08:10:01;;;;;;;22.10;11.07;;;;;;;20.23;100.00;92305.78;4937985;29;20032;-82
2023/06/11 08:12:27;;;;;;;18.60;10.05;;;;;;;20.36;100.00;92305.28;4921726;29;20040;-82
2023/06/11 08:14:52;;;;;;;22.08;13.30;;;;;;;20.45;100.00;92297.09;4947387;29;20500;-81
2023/06/11 08:17:18;;;;;;;22.67;11.75;;;;;;;20.57;100.00;92296.94;4956647;29;20415;-82
2023/06/11 08:19:44;;;;;;;24.38;12.30;;;;;;;20.27;100.00;92306.63;4956377;28;20050;-80
2023/06/11 08:22:10;;;;;;;14.73;8.88;;;;;;;20.12;100.00;92298.34;4952700;29;20035;-79
2023/06/11 08:24:35;;;;;;;23.23;12.05;;;;;;;20.10;100.00;92307.78;4931932;29;20095;-78
2023/06/11 08:27:02;;;;;;;23.42;13.30;;;;;;;20.07;100.00;92308.50;4955627;29;20050;-80
2023/06/11 08:29:28;;;;;;;17.60;10.95;;;;;;;20.27;100.00;92306.63;4954171;29;20449;-78
2023/06/11 08:31:53;;;;;;;18.92;10.75;;;;;;;20.43;100.00;92309.19;4951032;29;20035;-77
2023/06/11 08:34:19;;;;;;;18.85;10.55;;;;;;;20.68;100.00;92315.75;4950795;28;20044;-80
2023/06/11 08:36:45;;;;;;;24.52;14.10;;;;;;;20.43;100.00;92315.28;4918186;29;20536;-79
2023/06/11 08:39:11;;;;;;;16.65;10.75;;;;;;;20.51;100.00;92316.97;4912777;29;20051;-79
2023/06/11 08:41:36;;;;;;;20.88;10.77;;;;;;;20.51;100.00;92308.97;4949721;29;20107;-78
2023/06/11 08:44:02;;;;;;;20.25;10.05;;;;;;;20.65;100.00;92310.38;4947958;28;20511;-77
2023/06/11 08:46:33;;;;;;;16.67;10.52;;;;;;;20.33;100.00;92310.50;4951454;29;20114;-78
2023/06/11 08:49:05;;;;;;;18.75;10.80;;;;;;;20.59;100.00;92313.31;4950322;28;20078;-78
2023/06/11 08:51:38;;;;;;;18.90;10.82;;;;;;;20.65;100.00;92315.69;4947042;28;20035;-80
2023/06/11 08:54:08;;;;;;;29.20;17.48;;;;;;;20.67;100.00;92308.13;4948242;28;20035;-79
2023/06/11 08:56:34;;;;;;;16.83;11.02;;;;;;;20.67;100.00;92316.09;4956065;28;20035;-79
2023/06/11 08:59:00;;;;;;;17.27;10.45;;;;;;;20.77;100.00;92313.63;4956738;29;20501;-78
2023/06/11 09:01:26;;;;;;;26.63;13.68;;;;;;;20.86;100.00;92318.75;4933538;29;20036;-78
2023/06/11 09:03:52;;;;;;;19.58;12.35;;;;;;;20.97;100.00;92311.72;4943044;28;20047;-80
2023/06/11 09:06:18;;;;;;;22.88;11.15;;;;;;;21.14;100.00;92317.66;4940880;29;20049;-80
2023/06/11 09:08:58;;;;;;;16.33;10.13;;;;;;;21.20;100.00;92314.34;4953960;29;20063;-78
2023/06/11 09:11:23;;;;;;;19.13;9.82;;;;;;;21.20;100.00;92321.56;4945905;29;20039;-79
2023/06/11 09:13:49;;;;;;;16.77;9.90;;;;;;;21.45;100.00;92334.53;4954024;28;20036;-78
2023/06/11 09:16:14;;;;;;;20.23;10.32;;;;;;;21.74;100.00;92325.84;4955238;29;20031;-78
2023/06/11 09:18:42;;;;;;;186.80;103.10;;;;;;;22.01;100.00;92333.81;4950035;29;20039;-81
2023/06/11 09:21:11;;;;;;;19.75;11.63;;;;;;;21.87;100.00;92334.41;4947844;29;20031;-78
2023/06/11 09:23:38;;;;;;;21.05;11.65;;;;;;;21.45;100.00;92335.31;4946986;29;20046;-77
2023/06/11 09:26:05;;;;;;;121.72;50.40;;;;;;;21.26;100.00;92336.13;4954639;28;20035;-78
2023/06/11 09:28:32;;;;;;;17.05;10.48;;;;;;;21.33;100.00;92333.56;4948217;29;20032;-78
2023/06/11 09:31:00;;;;;;;102.25;44.95;;;;;;;22.03;100.00;92334.22;4953775;28;20501;-78
2023/06/11 09:33:27;;;;;;;23.20;12.43;;;;;;;22.12;100.00;92334.72;4951616;29;20035;-80
2023/06/11 09:35:53;;;;;;;19.73;11.50;;;;;;;22.13;100.00;92333.59;4927528;29;20039;-77
2023/06/11 09:38:20;;;;;;;23.33;13.05;;;;;;;22.06;100.00;92340.72;4935398;29;21014;-77
2023/06/11 09:40:51;;;;;;;19.92;11.02;;;;;;;21.98;100.00;92329.97;4954519;29;20023;-77
2023/06/11 09:43:23;;;;;;;35.90;18.35;;;;;;;22.06;100.00;92341.50;4956231;29;20062;-82
2023/06/11 09:45:54;;;;;;;162.50;62.33;;;;;;;21.86;100.00;92332.84;4934580;29;20663;-78
2023/06/11 09:48:22;;;;;;;30.93;19.57;;;;;;;22.39;100.00;92340.03;4954120;29;20023;-77
2023/06/11 09:50:49;;;;;;;15.40;11.00;;;;;;;22.47;100.00;92336.31;4939755;28;20043;-78
2023/06/11 09:53:19;;;;;;;18.40;11.73;;;;;;;22.11;100.00;92333.19;4940662;29;20054;-79
2023/06/11 09:55:49;;;;;;;21.42;12.65;;;;;;;21.82;100.00;92334.72;4940076;28;20074;-79
2023/06/11 09:58:22;;;;;;;29.48;14.27;;;;;;;22.19;100.00;92344.72;4953600;29;20493;-79
2023/06/11 10:00:49;;;;;;;20.92;11.95;;;;;;;22.17;100.00;92342.41;4953803;29;20027;-80
2023/06/11 10:03:15;;;;;;;20.40;10.65;;;;;;;22.08;100.00;92343.81;4920943;29;20036;-77
2023/06/11 10:05:41;;;;;;;19.52;12.55;;;;;;;22.45;100.00;92333.25;4933379;29;20042;-79
2023/06/11 10:08:12;;;;;;;19.55;10.98;;;;;;;21.91;100.00;92340.56;4951207;29;20118;-79
2023/06/11 10:10:44;;;;;;;14.85;8.95;;;;;;;21.36;100.00;92343.50;4954490;29;20031;-81
2023/06/11 10:13:10;;;;;;;22.13;12.27;;;;;;;21.51;100.00;92343.78;4954792;29;20031;-79
2023/06/11 10:15:37;;;;;;;17.17;10.65;;;;;;;21.73;100.00;92339.50;4952393;29;20031;-79
2023/06/11 10:18:12;;;;;;;23.95;13.68;;;;;;;21.90;100.00;92338.22;4937973;29;20035;-78
2023/06/11 10:20:51;;;;;;;17.58;10.07;;;;;;;21.41;100.00;92345.13;4952950;29;20489;-79
2023/06/11 10:23:17;;;;;;;22.27;12.45;;;;;;;21.31;100.00;92343.06;4938204;29;20031;-79
2023/06/11 10:25:52;;;;;;;20.08;12.30;;;;;;;21.20;100.00;92338.31;4950419;28;20445;-78
2023/06/11 10:28:17;;;;;;;29.42;13.48;;;;;;;20.94;100.00;92347.00;4951585;29;20035;-77
2023/06/11 10:30:53;;;;;;;25.52;13.43;;;;;;;21.20;100.00;92351.63;4952775;29;20047;-76
2023/06/11 10:33:20;;;;;;;22.48;12.75;;;;;;;21.53;100.00;92341.53;4932995;29;20039;-77
2023/06/11 10:35:47;;;;;;;22.92;11.35;;;;;;;21.66;100.00;92356.19;4953912;28;20257;-78
2023/06/11 10:38:17;;;;;;;18.90;11.45;;;;;;;21.46;100.00;92349.38;4953972;29;20035;-78
2023/06/11 10:40:43;;;;;;;36.28;18.70;;;;;;;21.59;100.00;92342.72;4953239;29;20091;-78
2023/06/11 10:43:17;;;;;;;26.80;14.07;;;;;;;21.39;100.00;92348.13;4951925;29;20035;-79
2023/06/11 10:45:42;;;;;;;22.17;12.93;;;;;;;21.83;100.00;92346.91;4952751;28;20138;-77
2023/06/11 10:48:09;;;;;;;27.65;14.00;;;;;;;21.65;100.00;92353.88;4951223;29;20058;-77
2023/06/11 10:50:35;;;;;;;24.85;12.02;;;;;;;21.92;100.00;92346.63;4954608;29;20130;-78
2023/06/11 10:53:07;;;;;;;29.35;14.40;;;;;;;22.28;100.00;92347.13;4943017;28;20142;-78
2023/06/11 10:55:34;;;;;;;;;;;;;;;22.09;100.00;92348.78;4954308;28;20082;-77
2023/06/11 10:58:00;;;;;;;20.48;12.88;;;;;;;21.95;100.00;92351.25;4951625;28;19919;-78
2023/06/11 11:00:34;;;;;;;20.42;13.07;;;;;;;21.88;100.00;92345.81;4947000;29;20043;-77
2023/06/11 11:03:03;;;;;;;20.75;12.15;;;;;;;22.15;100.00;92352.66;4940430;29;20038;-78
2023/06/11 11:05:29;;;;;;;19.92;11.20;;;;;;;22.40;100.00;92354.88;4934822;29;20097;-79
2023/06/11 11:07:55;;;;;;;25.65;13.68;;;;;;;22.50;100.00;92369.50;4951538;28;20023;-79
2023/06/11 11:10:26;;;;;;;21.00;12.52;;;;;;;22.51;100.00;92342.44;4950179;29;20366;-80